createdAt,value
2023-05-08T00:01:50.848Z,1.67
2023-05-08T00:04:20.596Z,3.37
2023-05-08T00:06:51.521Z,3.00
2023-05-08T00:09:19.555Z,2.87
2023-05-08T00:11:47.466Z,1.40
2023-05-08T00:14:16.034Z,3.07
2023-05-08T00:16:44.058Z,5.90
2023-05-08T00:19:11.992Z,7.50
2023-05-08T00:21:40.158Z,2.80
2023-05-08T00:24:09.794Z,2.10
2023-05-08T00:26:37.769Z,2.40
2023-05-08T00:29:06.689Z,1.83
2023-05-08T00:31:34.970Z,1.57
2023-05-08T00:34:02.887Z,2.80
2023-05-08T00:36:30.790Z,5.33
2023-05-08T00:38:58.749Z,2.37
2023-05-08T00:41:28.071Z,2.90
2023-05-08T00:43:56.054Z,2.90
2023-05-08T00:46:23.976Z,2.07
2023-05-08T00:48:51.943Z,2.13
2023-05-08T00:51:19.843Z,4.00
2023-05-08T00:53:47.771Z,1.60
2023-05-08T00:56:16.904Z,3.83
2023-05-08T00:58:46.535Z,2.43
2023-05-08T01:01:14.517Z,5.50
2023-05-08T01:03:42.871Z,2.13
2023-05-08T01:06:10.930Z,2.80
2023-05-08T01:08:38.845Z,2.40
2023-05-08T01:11:14.126Z,6.93
2023-05-08T01:13:52.953Z,1.77
2023-05-08T01:16:26.022Z,1.80
2023-05-08T01:18:57.363Z,8.80
2023-05-08T01:21:28.602Z,3.90
2023-05-08T01:24:21.144Z,2.30
2023-05-08T01:27:21.687Z,2.73
2023-05-08T01:30:04.227Z,2.30
2023-05-08T01:32:34.397Z,2.57
2023-05-08T01:35:05.101Z,8.43
2023-05-08T01:37:36.820Z,6.20
2023-05-08T01:40:11.515Z,1.90
2023-05-08T01:42:45.659Z,5.90
2023-05-08T01:45:15.419Z,15.67
2023-05-08T01:47:45.059Z,2.20
2023-05-08T01:50:15.836Z,3.43
2023-05-08T01:52:45.189Z,4.73
2023-05-08T01:55:15.440Z,4.37
2023-05-08T01:57:46.418Z,5.83
2023-05-08T02:00:15.558Z,4.70
2023-05-08T02:02:45.048Z,4.97
2023-05-08T02:05:13.028Z,2.30
2023-05-08T02:07:40.945Z,2.03
2023-05-08T02:10:10.095Z,4.30
2023-05-08T02:12:38.463Z,5.60
2023-05-08T02:15:07.454Z,4.13
2023-05-08T02:17:35.417Z,3.07
2023-05-08T02:20:05.207Z,3.10
2023-05-08T02:22:33.619Z,2.27
2023-05-08T02:25:01.514Z,9.20
2023-05-08T02:27:29.583Z,5.03
2023-05-08T02:29:57.566Z,5.17
2023-05-08T02:32:26.626Z,5.17
2023-05-08T02:35:02.484Z,2.13
2023-05-08T02:37:32.646Z,3.53
2023-05-08T02:40:00.575Z,7.33
2023-05-08T02:42:28.520Z,1.57
2023-05-08T02:44:56.405Z,2.50
2023-05-08T02:47:26.839Z,3.63
2023-05-08T02:49:57.271Z,2.70
2023-05-08T02:52:28.710Z,9.83
2023-05-08T02:55:00.046Z,2.27
2023-05-08T02:57:33.361Z,4.10
2023-05-08T03:00:04.040Z,3.10
2023-05-08T03:02:34.722Z,5.17
2023-05-08T03:05:05.296Z,6.23
2023-05-08T03:07:33.223Z,3.37
2023-05-08T03:10:08.069Z,2.70
2023-05-08T03:12:36.041Z,15.83
2023-05-08T03:15:05.236Z,7.80
2023-05-08T03:17:34.392Z,5.43
2023-05-08T03:20:05.233Z,3.70
2023-05-08T03:22:34.013Z,3.00
2023-05-08T03:25:04.878Z,2.73
2023-05-08T03:27:32.884Z,3.77
2023-05-08T03:30:00.819Z,5.93
2023-05-08T03:32:29.379Z,9.00
2023-05-08T03:34:57.330Z,5.67
2023-05-08T03:37:25.299Z,6.67
2023-05-08T03:39:53.240Z,3.93
2023-05-08T03:42:22.588Z,2.63
2023-05-08T03:44:51.400Z,3.33
2023-05-08T03:47:19.437Z,3.53
2023-05-08T03:49:47.496Z,5.67
2023-05-08T03:52:15.488Z,11.80
2023-05-08T03:54:43.487Z,20.83
2023-05-08T03:57:11.449Z,14.53
2023-05-08T03:59:45.653Z,7.00
2023-05-08T04:02:18.748Z,11.87
2023-05-08T04:04:47.124Z,12.70
2023-05-08T04:07:17.143Z,16.20
2023-05-08T04:09:46.282Z,4.33
2023-05-08T04:12:17.045Z,3.70
2023-05-08T04:14:55.724Z,5.00
2023-05-08T04:17:30.014Z,2.60
2023-05-08T04:20:01.998Z,7.67
2023-05-08T04:22:30.007Z,4.47
2023-05-08T04:24:59.124Z,4.57
2023-05-08T04:27:27.068Z,5.33
2023-05-08T04:29:56.452Z,7.27
2023-05-08T04:32:24.419Z,6.00
2023-05-08T04:34:52.911Z,5.43
2023-05-08T04:37:25.714Z,6.57
2023-05-08T04:39:53.726Z,9.37
2023-05-08T04:42:21.811Z,3.60
2023-05-08T04:44:49.770Z,2.10
2023-05-08T04:47:19.154Z,5.50
2023-05-08T04:49:47.133Z,3.17
2023-05-08T04:52:15.047Z,3.17
2023-05-08T04:54:43.009Z,3.30
2023-05-08T04:57:11.231Z,3.37
2023-05-08T04:59:39.137Z,2.33
2023-05-08T05:02:08.384Z,2.17
2023-05-08T05:04:37.910Z,6.30
2023-05-08T05:07:05.884Z,3.87
2023-05-08T05:09:36.938Z,4.23
2023-05-08T05:12:04.949Z,3.00
2023-05-08T05:14:32.907Z,6.80
2023-05-08T05:17:00.823Z,3.97
2023-05-08T05:19:28.733Z,4.50
2023-05-08T05:21:58.091Z,2.10
2023-05-08T05:24:26.239Z,3.27
2023-05-08T05:26:54.214Z,4.70
2023-05-08T05:29:22.390Z,1.80
2023-05-08T05:31:50.343Z,5.57
2023-05-08T05:34:18.253Z,2.80
2023-05-08T05:36:46.238Z,3.33
2023-05-08T05:39:15.498Z,3.33
2023-05-08T05:41:44.293Z,3.87
2023-05-08T05:44:12.288Z,2.03
2023-05-08T05:46:42.142Z,3.13
2023-05-08T05:49:11.882Z,4.80
2023-05-08T05:51:39.811Z,1.90
2023-05-08T05:54:07.765Z,4.70
2023-05-08T05:56:37.410Z,2.23
2023-05-08T05:59:05.775Z,4.53
2023-05-08T06:01:33.696Z,2.50
2023-05-08T06:04:01.861Z,2.70
2023-05-08T06:06:30.089Z,3.30
2023-05-08T06:08:57.973Z,1.63
2023-05-08T06:11:25.896Z,2.67
2023-05-08T06:13:55.225Z,1.80
2023-05-08T06:16:25.178Z,2.00
2023-05-08T06:18:53.230Z,5.20
2023-05-08T06:21:21.157Z,6.33
2023-05-08T06:23:49.226Z,2.60
2023-05-08T06:26:17.182Z,12.63
2023-05-08T06:28:45.089Z,2.30
2023-05-08T06:31:14.498Z,1.50
2023-05-08T06:33:42.478Z,1.43
2023-05-08T06:36:10.975Z,3.50
2023-05-08T06:38:38.920Z,7.60
2023-05-08T06:41:06.819Z,3.13
2023-05-08T06:43:34.777Z,1.53
2023-05-08T06:46:02.755Z,1.63
2023-05-08T06:48:32.126Z,3.37
2023-05-08T06:51:00.116Z,3.00
2023-05-08T06:53:28.076Z,1.63
2023-05-08T06:55:57.941Z,3.20
2023-05-08T06:58:25.955Z,2.10
2023-05-08T07:00:53.852Z,2.87
2023-05-08T07:03:21.985Z,1.73
2023-05-08T07:05:51.350Z,4.17
2023-05-08T07:08:19.334Z,1.40
2023-05-08T07:10:47.236Z,1.40
2023-05-08T07:13:15.262Z,4.70
2023-05-08T07:15:43.384Z,1.90
2023-05-08T07:18:11.409Z,3.40
2023-05-08T07:20:39.408Z,1.23
2023-05-08T07:23:08.729Z,4.60
2023-05-08T07:25:36.734Z,1.30
2023-05-08T07:28:04.800Z,2.70
2023-05-08T07:30:33.831Z,1.80
2023-05-08T07:33:01.763Z,1.97
2023-05-08T07:35:30.108Z,5.43
2023-05-08T07:37:58.067Z,2.33
2023-05-08T07:40:27.416Z,1.43
2023-05-08T07:42:55.393Z,2.97
2023-05-08T07:45:23.346Z,7.60
2023-05-08T07:47:51.801Z,4.90
2023-05-08T07:50:20.180Z,2.10
2023-05-08T07:52:49.960Z,1.70
2023-05-08T07:55:18.497Z,3.23
2023-05-08T07:57:47.815Z,6.93
2023-05-08T08:00:16.618Z,4.40
2023-05-08T08:02:44.998Z,4.87
2023-05-08T08:05:13.501Z,3.27
2023-05-08T08:07:41.586Z,1.53
2023-05-08T08:10:10.225Z,2.07
2023-05-08T08:12:38.299Z,2.00
2023-05-08T08:15:08.630Z,4.60
2023-05-08T08:17:36.639Z,2.83
2023-05-08T08:20:04.947Z,2.73
2023-05-08T08:22:32.920Z,2.20
2023-05-08T08:25:00.938Z,3.50
2023-05-08T08:27:28.874Z,2.10
2023-05-08T08:30:12.915Z,3.03
2023-05-08T08:32:46.107Z,1.73
2023-05-08T08:35:14.865Z,2.00
2023-05-08T08:37:43.821Z,3.70
2023-05-08T08:40:12.139Z,2.40
2023-05-08T08:42:40.942Z,1.73
2023-05-08T08:45:10.309Z,3.40
2023-05-08T08:47:39.927Z,2.93
2023-05-08T08:50:12.764Z,2.20
2023-05-08T08:52:45.192Z,12.30
2023-05-08T08:55:13.855Z,2.20
2023-05-08T08:57:46.858Z,2.80
2023-05-08T09:00:15.859Z,2.17
2023-05-08T09:02:43.898Z,4.07
2023-05-08T09:05:13.460Z,8.70
2023-05-08T09:07:41.906Z,3.93
2023-05-08T09:10:15.387Z,5.33
2023-05-08T09:12:45.117Z,2.83
2023-05-08T09:15:13.374Z,2.23
2023-05-08T09:17:41.582Z,3.70
2023-05-08T09:20:10.784Z,1.47
2023-05-08T09:22:40.206Z,1.77
2023-05-08T09:25:08.787Z,5.43
2023-05-08T09:27:36.919Z,2.70
2023-05-08T09:30:06.220Z,4.13
2023-05-08T09:32:34.901Z,1.47
2023-05-08T09:35:03.081Z,3.03
2023-05-08T09:37:31.226Z,2.57
2023-05-08T09:42:52.855Z,7.60
2023-05-08T09:45:28.196Z,3.93
2023-05-08T09:47:56.302Z,3.47
2023-05-08T09:50:24.313Z,2.03
2023-05-08T09:52:52.332Z,2.10
2023-05-08T09:55:20.760Z,3.83
2023-05-08T09:57:57.851Z,2.97
2023-05-08T10:00:26.273Z,1.57
2023-05-08T10:02:58.201Z,16.70
2023-05-08T10:05:27.882Z,4.33
2023-05-08T10:07:55.955Z,4.60
2023-05-08T10:10:26.166Z,1.70
2023-05-08T10:12:54.596Z,3.73
2023-05-08T10:15:27.375Z,2.00
2023-05-08T10:17:56.316Z,6.10
2023-05-08T10:20:24.285Z,1.53
2023-05-08T10:22:52.215Z,1.40
2023-05-08T10:25:20.373Z,2.50
2023-05-08T10:27:51.005Z,1.47
2023-05-08T10:30:18.938Z,14.33
2023-05-08T10:32:48.281Z,2.53
2023-05-08T10:35:16.298Z,2.63
2023-05-08T10:37:44.229Z,1.27
2023-05-08T10:40:12.744Z,1.80
2023-05-08T10:42:40.763Z,2.23
2023-05-08T10:45:09.704Z,3.30
2023-05-08T10:47:45.836Z,2.17
2023-05-08T10:50:28.891Z,8.20
2023-05-08T10:53:00.821Z,1.73
2023-05-08T10:55:31.095Z,2.28
2023-05-08T10:58:11.727Z,1.67
2023-05-08T11:01:12.813Z,2.05
2023-05-08T11:03:41.942Z,1.35
2023-05-08T11:06:11.421Z,6.43
2023-05-08T11:08:49.962Z,7.15
2023-05-08T11:11:23.944Z,3.13
2023-05-08T11:13:53.933Z,1.40
2023-05-08T11:16:54.913Z,3.63
2023-05-08T11:19:23.456Z,3.15
2023-05-08T11:22:14.657Z,7.47
2023-05-08T11:24:48.009Z,3.05
2023-05-08T11:27:15.965Z,4.93
2023-05-08T11:29:44.988Z,1.58
2023-05-08T11:32:13.205Z,1.80
2023-05-08T11:34:48.775Z,1.52
2023-05-08T11:37:21.787Z,2.08
2023-05-08T11:39:49.866Z,3.95
2023-05-08T11:42:36.969Z,5.00
2023-05-08T11:45:06.297Z,2.97
2023-05-08T11:47:39.191Z,1.92
2023-05-08T11:50:08.265Z,7.10
2023-05-08T11:52:37.899Z,5.63
2023-05-08T11:55:06.277Z,4.40
2023-05-08T11:57:34.314Z,1.75
2023-05-08T12:00:05.856Z,1.70
2023-05-08T12:02:40.708Z,1.40
2023-05-08T12:05:09.612Z,1.60
2023-05-08T12:07:46.237Z,5.65
2023-05-08T12:10:14.875Z,3.78
2023-05-08T12:12:44.240Z,4.05
2023-05-08T12:15:13.304Z,5.47
2023-05-08T12:17:41.466Z,1.60
2023-05-08T12:20:14.354Z,1.93
2023-05-08T12:22:42.832Z,1.70
2023-05-08T12:25:13.090Z,2.00
2023-05-08T12:27:41.249Z,2.13
2023-05-08T12:30:10.676Z,13.77
2023-05-08T12:32:39.417Z,3.97
2023-05-08T12:35:07.921Z,2.80
2023-05-08T12:37:36.684Z,5.03
2023-05-08T12:40:04.860Z,3.63
2023-05-08T12:42:47.140Z,7.97
2023-05-08T12:45:18.999Z,1.90
2023-05-08T12:47:48.161Z,3.53
2023-05-08T12:50:16.624Z,7.67
2023-05-08T12:52:44.939Z,5.73
2023-05-08T12:55:22.973Z,9.97
2023-05-08T12:57:52.833Z,2.07
2023-05-08T13:00:21.265Z,5.07
2023-05-08T13:02:53.405Z,6.70
2023-05-08T13:05:22.576Z,2.07
2023-05-08T13:07:51.437Z,2.67
2023-05-08T13:10:21.599Z,3.57
2023-05-08T13:12:52.844Z,2.90
2023-05-08T13:15:21.295Z,8.50
2023-05-08T13:17:49.430Z,4.40
2023-05-08T13:20:17.458Z,8.90
2023-05-08T13:22:45.385Z,2.50
2023-05-08T13:25:13.529Z,4.80
2023-05-08T13:27:41.651Z,3.60
2023-05-08T13:30:11.981Z,5.60
2023-05-08T13:32:40.168Z,4.57
2023-05-08T13:35:08.877Z,2.40
2023-05-08T13:37:36.779Z,3.80
2023-05-08T13:40:05.201Z,3.97
2023-05-08T13:42:33.125Z,6.07
2023-05-08T13:45:01.651Z,2.10
2023-05-08T13:47:30.971Z,8.07
2023-05-08T13:49:58.935Z,5.80
2023-05-08T13:52:29.144Z,13.53
2023-05-08T13:54:58.248Z,3.10
2023-05-08T13:57:26.271Z,2.30
2023-05-08T13:59:54.224Z,3.20
2023-05-08T14:02:22.346Z,1.97
2023-05-08T14:04:51.827Z,13.97
2023-05-08T14:07:19.744Z,4.97
2023-05-08T14:09:47.724Z,3.20
2023-05-08T14:12:15.707Z,5.70
2023-05-08T14:14:43.613Z,4.67
2023-05-08T14:17:11.751Z,3.73
2023-05-08T14:19:39.718Z,3.10
2023-05-08T14:22:09.078Z,4.87
2023-05-08T14:24:37.014Z,7.57
2023-05-08T14:27:06.361Z,5.27
2023-05-08T14:29:34.382Z,5.17
2023-05-08T14:32:02.384Z,16.73
2023-05-08T14:34:30.353Z,3.30
2023-05-08T14:36:58.299Z,2.87
2023-05-08T14:39:27.615Z,6.17
2023-05-08T14:42:20.870Z,4.30
2023-05-08T14:44:43.560Z,3.53
2023-05-08T14:47:11.581Z,4.87
2023-05-08T14:49:39.559Z,7.07
2023-05-08T14:52:07.506Z,8.23
2023-05-08T14:54:36.987Z,6.97
2023-05-08T14:57:05.115Z,4.97
2023-05-08T14:59:33.104Z,4.40
2023-05-08T15:02:01.220Z,8.30
2023-05-08T15:04:29.258Z,6.40
2023-05-08T15:06:57.200Z,4.90
2023-05-08T15:09:25.172Z,7.13
2023-05-08T15:11:54.503Z,8.47
2023-05-08T15:14:22.504Z,6.17
2023-05-08T15:16:50.564Z,6.77
2023-05-08T15:19:18.542Z,7.57
2023-05-08T15:21:55.680Z,7.83
2023-05-08T15:24:23.640Z,9.83
2023-05-08T15:26:51.641Z,9.37
2023-05-08T15:29:20.959Z,8.17
2023-05-08T15:31:48.895Z,11.70
2023-05-08T15:34:16.884Z,6.43
2023-05-08T15:36:44.771Z,6.60
2023-05-08T15:39:12.715Z,12.00
2023-05-08T15:41:41.381Z,11.77
2023-05-08T15:44:09.348Z,8.23
2023-05-08T15:46:38.683Z,10.33
2023-05-08T15:49:06.623Z,14.30
2023-05-08T15:51:34.633Z,8.47
2023-05-08T15:54:02.580Z,7.80
2023-05-08T15:56:30.503Z,8.17
2023-05-08T15:58:58.446Z,12.40
2023-05-08T16:01:26.407Z,12.50
2023-05-08T16:03:55.782Z,9.20
2023-05-08T16:06:23.752Z,10.43
2023-05-08T16:08:52.548Z,6.70
2023-05-08T16:11:21.716Z,8.77
2023-05-08T16:13:49.678Z,9.53
2023-05-08T16:16:17.634Z,12.23
2023-05-08T16:18:45.591Z,19.73
2023-05-08T16:21:14.878Z,13.07
2023-05-08T16:23:42.843Z,10.97
2023-05-08T16:26:10.746Z,15.37
2023-05-08T16:28:38.736Z,12.83
2023-05-08T16:31:07.711Z,14.90
2023-05-08T16:33:35.680Z,12.60
2023-05-08T16:36:03.624Z,10.90
2023-05-08T16:38:33.154Z,13.97
2023-05-08T16:41:03.979Z,12.03
2023-05-08T16:43:31.907Z,20.47
2023-05-08T16:45:59.910Z,17.90
2023-05-08T16:48:29.000Z,12.30
2023-05-08T16:50:57.234Z,17.53
2023-05-08T16:53:27.169Z,11.57
2023-05-08T16:55:56.499Z,13.23
2023-05-08T16:58:25.949Z,10.10
2023-05-08T17:00:53.909Z,18.93
2023-05-08T17:03:21.940Z,14.70
2023-05-08T17:05:49.976Z,17.23
2023-05-08T17:08:17.943Z,12.03
2023-05-08T17:10:45.861Z,17.00
2023-05-08T17:13:15.265Z,12.80
2023-05-08T17:15:43.260Z,27.73
2023-05-08T17:18:11.243Z,16.20
2023-05-08T17:20:42.303Z,15.57
2023-05-08T17:23:11.376Z,17.90
2023-05-08T17:25:39.284Z,12.60
2023-05-08T17:28:07.245Z,13.83
2023-05-08T17:30:36.568Z,14.00
2023-05-08T17:33:04.605Z,14.27
2023-05-08T17:35:32.556Z,16.87
2023-05-08T17:38:00.497Z,9.70
2023-05-08T17:40:28.948Z,12.50
2023-05-08T17:42:59.128Z,10.03
2023-05-08T17:45:27.167Z,13.57
2023-05-08T17:47:56.655Z,8.67
2023-05-08T17:50:24.866Z,15.63
2023-05-08T17:52:52.836Z,11.30
2023-05-08T17:55:20.809Z,13.40
2023-05-08T17:57:48.721Z,13.90
2023-05-08T18:00:17.678Z,13.00
2023-05-08T18:02:45.679Z,13.20
2023-05-08T18:05:15.739Z,16.80
2023-05-08T18:07:43.684Z,14.20
2023-05-08T18:10:12.410Z,11.27
2023-05-08T18:12:40.672Z,12.30
2023-05-08T18:15:09.489Z,13.93
2023-05-08T18:17:37.478Z,12.03
2023-05-08T18:20:07.877Z,10.70
2023-05-08T18:22:37.256Z,12.40
2023-05-08T18:25:05.735Z,11.70
2023-05-08T18:27:34.532Z,13.30
2023-05-08T18:30:02.558Z,12.60
2023-05-08T18:32:30.549Z,11.67
2023-05-08T18:34:58.524Z,11.40
2023-05-08T18:37:26.553Z,11.90
2023-05-08T18:39:55.869Z,11.93
2023-05-08T18:42:23.843Z,13.90
2023-05-08T18:44:51.741Z,8.63
2023-05-08T18:47:19.737Z,12.97
2023-05-08T18:49:47.702Z,9.27
2023-05-08T18:52:15.636Z,11.00
2023-05-08T18:54:43.553Z,10.00
2023-05-08T18:57:12.849Z,10.70
2023-05-08T18:59:41.267Z,12.07
2023-05-08T19:02:09.214Z,8.03
2023-05-08T19:04:37.131Z,11.40
2023-05-08T19:07:05.110Z,11.33
2023-05-08T19:09:33.991Z,9.30
2023-05-08T19:12:01.980Z,11.07
2023-05-08T19:14:31.314Z,10.60
2023-05-08T19:16:59.184Z,10.70
2023-05-08T19:19:27.646Z,11.63
2023-05-08T19:21:55.585Z,12.23
2023-05-08T19:24:24.999Z,11.80
2023-05-08T19:26:52.954Z,11.23
2023-05-08T19:29:20.912Z,7.90
2023-05-08T19:31:50.254Z,8.43
2023-05-08T19:34:18.292Z,8.60
2023-05-08T19:36:46.255Z,8.80
2023-05-08T19:39:14.759Z,12.07
2023-05-08T19:41:43.517Z,11.83
2023-05-08T19:44:11.458Z,8.73
2023-05-08T19:46:39.820Z,8.17
2023-05-08T19:49:09.265Z,8.90
2023-05-08T19:51:37.192Z,6.40
2023-05-08T19:54:05.476Z,7.50
2023-05-08T19:56:33.405Z,6.63
2023-05-08T19:59:01.368Z,5.50
2023-05-08T20:01:29.319Z,10.80
2023-05-08T20:03:59.699Z,10.60
2023-05-08T20:06:30.535Z,8.33
2023-05-08T20:08:58.463Z,14.10
2023-05-08T20:11:26.386Z,17.17
2023-05-08T20:13:54.983Z,13.27
2023-05-08T20:16:22.926Z,9.93
2023-05-08T20:18:50.920Z,10.10
2023-05-08T20:21:18.908Z,11.93
2023-05-08T20:23:48.440Z,7.27
2023-05-08T20:26:16.370Z,7.00
2023-05-08T20:28:44.330Z,8.10
2023-05-08T20:31:12.285Z,6.00
2023-05-08T20:33:40.215Z,7.07
2023-05-08T20:36:08.218Z,9.30
2023-05-08T20:38:36.828Z,12.13
2023-05-08T20:41:06.288Z,5.60
2023-05-08T20:43:34.239Z,7.60
2023-05-08T20:46:02.264Z,9.03
2023-05-08T20:48:30.307Z,11.23
2023-05-08T20:50:58.206Z,6.70
2023-05-08T20:53:26.242Z,9.93
2023-05-08T20:56:01.124Z,8.43
2023-05-08T20:58:30.435Z,6.40
2023-05-08T21:00:58.429Z,7.70
2023-05-08T21:03:26.426Z,7.27
2023-05-08T21:05:55.419Z,8.20
2023-05-08T21:08:23.836Z,8.20
2023-05-08T21:10:51.877Z,8.03
2023-05-08T21:13:19.924Z,8.97
2023-05-08T21:15:51.383Z,15.53
2023-05-08T21:18:19.352Z,8.27
2023-05-08T21:20:50.340Z,7.97
2023-05-08T21:23:18.468Z,10.43
2023-05-08T21:25:47.651Z,8.63
2023-05-08T21:28:16.435Z,16.57
2023-05-08T21:30:44.376Z,11.27
2023-05-08T21:33:13.920Z,6.53
2023-05-08T21:35:42.175Z,8.70
2023-05-08T21:38:12.124Z,13.30
2023-05-08T21:40:40.182Z,6.90
2023-05-08T21:43:08.129Z,7.67
2023-05-08T21:45:36.351Z,15.83
2023-05-08T21:48:04.460Z,9.70
2023-05-08T21:50:33.976Z,13.03
2023-05-08T21:53:01.927Z,10.70
2023-05-08T21:55:30.987Z,12.33
2023-05-08T21:58:00.229Z,10.67
2023-05-08T22:00:28.185Z,16.20
2023-05-08T22:02:56.231Z,11.33
2023-05-08T22:05:24.454Z,10.50
2023-05-08T22:07:54.004Z,8.03
2023-05-08T22:10:22.529Z,11.70
2023-05-08T22:12:50.615Z,14.53
2023-05-08T22:15:29.122Z,21.63
2023-05-08T22:17:58.135Z,5.57
2023-05-08T22:20:26.172Z,7.80
2023-05-08T22:22:55.530Z,10.17
2023-05-08T22:25:23.517Z,15.97
2023-05-08T22:27:51.503Z,8.37
2023-05-08T22:30:19.590Z,8.67
2023-05-08T22:32:49.733Z,7.27
2023-05-08T22:35:17.661Z,9.70
2023-05-08T22:37:45.788Z,7.70
2023-05-08T22:40:15.482Z,5.90
2023-05-08T22:42:43.522Z,11.27
2023-05-08T22:45:12.608Z,7.63
2023-05-08T22:47:40.906Z,9.80
2023-05-08T22:50:09.829Z,6.77
2023-05-08T22:52:37.819Z,6.93
2023-05-08T22:55:06.745Z,8.20
2023-05-08T22:57:36.112Z,11.47
2023-05-08T23:00:04.166Z,9.73
2023-05-08T23:02:32.829Z,6.73
2023-05-08T23:05:00.942Z,11.30
2023-05-08T23:07:29.650Z,5.13
2023-05-08T23:09:57.568Z,8.97
2023-05-08T23:12:25.488Z,6.30
2023-05-08T23:14:54.804Z,7.27
2023-05-08T23:17:22.775Z,7.77
2023-05-08T23:19:50.677Z,6.70
2023-05-08T23:22:18.639Z,9.53
2023-05-08T23:24:46.617Z,7.37
2023-05-08T23:27:14.536Z,8.00
2023-05-08T23:29:42.469Z,13.23
2023-05-08T23:32:11.803Z,7.90
2023-05-08T23:34:39.733Z,10.77
2023-05-08T23:37:07.702Z,7.90
2023-05-08T23:39:38.017Z,6.10
2023-05-08T23:42:06.743Z,8.77
2023-05-08T23:44:34.653Z,7.93
2023-05-08T23:47:02.602Z,4.20
2023-05-08T23:49:31.893Z,7.80
2023-05-08T23:51:59.782Z,7.80
2023-05-08T23:54:27.687Z,6.67
2023-05-08T23:56:55.640Z,10.30
2023-05-08T23:59:23.537Z,12.80
